createdAt,value
2023-02-19T00:03:11.917Z,8.60
2023-02-19T00:08:13.349Z,7.68
2023-02-19T00:13:14.953Z,5.88
2023-02-19T00:18:16.416Z,5.60
2023-02-19T00:23:18.002Z,6.72
2023-02-19T00:28:19.839Z,8.02
2023-02-19T00:33:21.336Z,7.38
2023-02-19T00:38:22.942Z,9.70
2023-02-19T00:43:24.442Z,9.63
2023-02-19T00:48:25.913Z,9.82
2023-02-19T00:53:27.358Z,9.23
2023-02-19T00:58:28.913Z,8.13
2023-02-19T01:03:30.516Z,9.80
2023-02-19T01:08:32.678Z,10.45
2023-02-19T01:13:36.106Z,6.78
2023-02-19T01:18:37.872Z,11.70
2023-02-19T01:23:39.592Z,11.40
2023-02-19T01:28:41.423Z,6.55
2023-02-19T01:33:52.317Z,8.82
2023-02-19T01:38:54.588Z,8.02
2023-02-19T01:43:57.734Z,11.75
2023-02-19T01:49:20.343Z,8.55
2023-02-19T01:54:25.075Z,7.32
2023-02-19T01:59:26.607Z,9.98
2023-02-19T02:04:30.892Z,10.85
2023-02-19T02:09:51.115Z,9.02
2023-02-19T02:14:52.578Z,8.25
2023-02-19T02:20:12.297Z,7.93
2023-02-19T02:25:31.977Z,7.57
2023-02-19T02:30:58.116Z,8.52
2023-02-19T02:36:21.911Z,10.52
2023-02-19T02:41:24.085Z,11.60
2023-02-19T02:46:35.027Z,8.52
2023-02-19T02:51:41.815Z,10.60
2023-02-19T02:56:50.928Z,12.02
2023-02-19T03:02:14.141Z,14.82
2023-02-19T03:07:15.882Z,12.23
2023-02-19T03:12:38.131Z,15.27
2023-02-19T03:18:05.428Z,12.98
2023-02-19T03:23:09.894Z,14.43
2023-02-19T03:28:16.086Z,15.57
2023-02-19T03:33:28.470Z,17.70
2023-02-19T03:38:39.755Z,17.23
2023-02-19T03:43:50.137Z,14.75
2023-02-19T03:49:06.442Z,13.82
2023-02-19T03:54:39.472Z,12.25
2023-02-19T03:59:54.826Z,16.50
2023-02-19T04:05:14.036Z,14.20
2023-02-19T04:10:17.890Z,15.38
2023-02-19T04:15:25.260Z,17.02
2023-02-19T04:20:32.255Z,21.20
2023-02-19T04:25:35.643Z,19.67
2023-02-19T04:30:37.288Z,15.75
2023-02-19T04:35:38.839Z,18.85
2023-02-19T04:40:40.269Z,22.48
2023-02-19T04:45:41.815Z,16.92
2023-02-19T04:50:43.279Z,16.42
2023-02-19T04:55:44.719Z,17.05
2023-02-19T05:00:46.150Z,19.85
2023-02-19T05:05:47.564Z,18.58
2023-02-19T05:10:49.132Z,20.10
2023-02-19T05:16:22.840Z,18.15
2023-02-19T05:21:24.858Z,22.27
2023-02-19T05:26:26.642Z,21.30
2023-02-19T05:31:28.499Z,19.05
2023-02-19T05:36:30.189Z,19.38
2023-02-19T05:41:31.634Z,19.25
2023-02-19T05:46:33.344Z,20.50
2023-02-19T05:51:34.902Z,15.77
2023-02-19T05:56:38.944Z,17.75
2023-02-19T06:01:40.374Z,17.42
2023-02-19T06:06:42.639Z,16.35
2023-02-19T06:11:44.477Z,13.88
2023-02-19T06:16:45.885Z,15.63
2023-02-19T06:21:50.533Z,9.70
2023-02-19T06:26:51.994Z,14.90
2023-02-19T06:31:53.538Z,14.60
2023-02-19T06:36:55.040Z,14.63
2023-02-19T06:41:59.496Z,16.70
2023-02-19T06:47:00.988Z,18.13
2023-02-19T06:52:03.614Z,19.20
2023-02-19T06:57:05.084Z,10.52
2023-02-19T07:02:07.307Z,12.38
2023-02-19T07:07:12.476Z,16.05
2023-02-19T07:12:13.951Z,23.25
2023-02-19T07:17:15.368Z,12.45
2023-02-19T07:22:16.792Z,11.77
2023-02-19T07:27:18.256Z,11.95
2023-02-19T07:32:19.670Z,17.50
2023-02-19T07:37:21.266Z,14.15
2023-02-19T07:42:22.743Z,13.88
2023-02-19T07:47:24.655Z,14.95
2023-02-19T07:52:26.162Z,13.70
2023-02-19T07:57:29.064Z,14.00
2023-02-19T08:02:49.085Z,11.10
2023-02-19T08:07:50.506Z,15.70
2023-02-19T08:13:18.488Z,10.93
2023-02-19T08:18:23.191Z,6.82
2023-02-19T08:23:25.391Z,8.55
2023-02-19T08:28:27.630Z,10.77
2023-02-19T08:33:30.439Z,17.02
2023-02-19T08:38:35.664Z,15.77
2023-02-19T08:43:37.361Z,9.38
2023-02-19T08:48:39.687Z,12.82
2023-02-19T08:53:41.738Z,9.80
2023-02-19T08:58:44.485Z,9.13
2023-02-19T09:03:46.360Z,8.02
2023-02-19T09:08:47.905Z,8.93
2023-02-19T09:13:49.509Z,7.97
2023-02-19T09:18:50.939Z,7.95
2023-02-19T09:23:52.557Z,7.10
2023-02-19T09:28:54.698Z,7.22
2023-02-19T09:33:56.239Z,6.18
2023-02-19T09:39:00.285Z,7.88
2023-02-19T09:44:09.099Z,8.85
2023-02-19T09:49:26.098Z,6.65
2023-02-19T09:54:30.452Z,6.15
2023-02-19T09:59:39.959Z,4.28
2023-02-19T10:10:01.105Z,4.00
2023-02-19T10:15:12.113Z,7.38
2023-02-19T10:20:22.384Z,8.63
2023-02-19T10:25:23.888Z,4.95
2023-02-19T10:30:29.288Z,13.02
2023-02-19T10:35:36.474Z,11.18
2023-02-19T10:40:44.875Z,7.93
2023-02-19T10:45:48.101Z,8.07
2023-02-19T10:50:57.979Z,7.22
2023-02-19T10:56:27.024Z,4.90
2023-02-19T11:01:29.180Z,6.97
2023-02-19T11:06:30.708Z,8.32
2023-02-19T11:11:40.113Z,5.55
2023-02-19T11:21:45.089Z,8.40
2023-02-19T11:26:46.616Z,5.55
2023-02-19T11:31:48.205Z,5.60
2023-02-19T11:37:08.942Z,6.13
2023-02-19T11:43:10.101Z,5.00
2023-02-19T11:53:28.587Z,6.30
2023-02-19T11:58:47.045Z,6.18
2023-02-19T12:04:12.916Z,5.55
2023-02-19T12:09:14.467Z,3.97
2023-02-19T12:14:57.840Z,3.47
2023-02-19T12:20:24.247Z,5.63
2023-02-19T12:25:36.746Z,6.10
2023-02-19T12:30:53.646Z,7.25
2023-02-19T12:36:08.712Z,4.90
2023-02-19T12:41:13.296Z,5.65
2023-02-19T12:46:21.456Z,3.08
2023-02-19T12:51:31.287Z,5.72
2023-02-19T12:56:40.800Z,9.57
2023-02-19T13:07:05.342Z,8.07
2023-02-19T13:12:14.015Z,4.23
2023-02-19T13:17:28.821Z,3.87
2023-02-19T13:22:56.147Z,4.30
2023-02-19T13:28:10.356Z,5.53
2023-02-19T13:33:19.778Z,3.60
2023-02-19T13:43:30.035Z,6.75
2023-02-19T13:48:34.224Z,4.40
2023-02-19T13:53:53.849Z,5.68
2023-02-19T13:59:17.943Z,9.20
2023-02-19T14:04:40.039Z,4.28
2023-02-19T14:09:43.633Z,3.97
2023-02-19T14:14:49.009Z,4.55
2023-02-19T14:19:53.447Z,6.88
2023-02-19T14:24:55.736Z,8.57
2023-02-19T14:29:57.823Z,8.10
2023-02-19T14:34:59.367Z,5.60
2023-02-19T14:40:01.042Z,6.68
2023-02-19T14:45:06.980Z,8.23
2023-02-19T14:50:21.424Z,9.57
2023-02-19T14:55:37.779Z,8.50
2023-02-19T15:00:41.333Z,8.23
2023-02-19T15:05:45.178Z,13.27
2023-02-19T15:10:47.093Z,9.98
2023-02-19T15:15:49.591Z,8.77
2023-02-19T15:20:52.626Z,10.75
2023-02-19T15:25:54.124Z,10.68
2023-02-19T15:30:58.421Z,8.63
2023-02-19T15:36:04.409Z,10.00
2023-02-19T15:41:05.911Z,10.15
2023-02-19T15:46:17.786Z,9.07
2023-02-19T15:51:26.869Z,7.70
2023-02-19T15:56:32.637Z,7.80
2023-02-19T16:01:38.713Z,6.47
2023-02-19T16:06:55.944Z,6.57
2023-02-19T16:11:59.949Z,4.25
2023-02-19T16:17:10.137Z,4.78
2023-02-19T16:22:13.400Z,1.73
2023-02-19T16:27:37.029Z,2.90
2023-02-19T16:32:38.485Z,1.70
2023-02-19T16:38:00.314Z,3.17
2023-02-19T16:43:24.549Z,3.28
2023-02-19T16:48:26.128Z,3.28
2023-02-19T16:53:29.261Z,2.10
2023-02-19T16:58:30.691Z,1.10
2023-02-19T17:03:32.182Z,0.90
2023-02-19T17:08:39.392Z,1.38
2023-02-19T17:13:41.856Z,3.03
2023-02-19T17:18:43.407Z,2.03
2023-02-19T17:23:45.265Z,1.05
2023-02-19T17:28:47.321Z,1.75
2023-02-19T17:33:49.814Z,1.65
2023-02-19T17:38:51.361Z,0.73
2023-02-19T17:43:53.262Z,9.45
2023-02-19T17:48:55.271Z,0.73
2023-02-19T17:53:57.071Z,0.55
2023-02-19T17:58:59.623Z,0.60
2023-02-19T18:04:01.150Z,1.95
2023-02-19T18:09:02.662Z,2.97
2023-02-19T18:14:04.074Z,2.78
2023-02-19T18:19:07.522Z,0.60
2023-02-19T18:24:09.013Z,1.02
2023-02-19T18:29:11.284Z,1.27
2023-02-19T18:34:18.302Z,0.80
2023-02-19T18:39:19.766Z,2.45
2023-02-19T18:44:23.621Z,1.55
2023-02-19T18:49:25.710Z,0.70
2023-02-19T18:54:28.589Z,1.38
2023-02-19T18:59:30.857Z,1.27
2023-02-19T19:04:32.402Z,0.82
2023-02-19T19:09:34.310Z,1.20
2023-02-19T19:14:35.740Z,0.60
2023-02-19T19:19:37.169Z,2.65
2023-02-19T19:24:38.817Z,1.35
2023-02-19T19:29:40.592Z,0.52
2023-02-19T19:34:43.032Z,2.72
2023-02-19T19:39:44.555Z,2.35
2023-02-19T19:44:45.991Z,2.40
2023-02-19T19:49:47.550Z,1.17
2023-02-19T19:54:53.756Z,2.00
2023-02-19T19:59:55.248Z,0.98
2023-02-19T20:04:56.822Z,1.13
2023-02-19T20:09:58.479Z,1.02
2023-02-19T20:15:00.050Z,1.05
2023-02-19T20:20:01.974Z,0.70
2023-02-19T20:25:04.041Z,4.30
2023-02-19T20:30:06.300Z,2.70
2023-02-19T20:35:07.919Z,1.83
2023-02-19T20:40:12.022Z,0.73
2023-02-19T20:45:16.549Z,1.88
2023-02-19T20:50:19.039Z,1.73
2023-02-19T20:55:20.680Z,2.15
2023-02-19T21:00:22.536Z,1.13
2023-02-19T21:05:25.053Z,1.85
2023-02-19T21:10:26.520Z,1.02
2023-02-19T21:15:27.982Z,2.65
2023-02-19T21:20:29.442Z,1.10
2023-02-19T21:25:33.058Z,2.20
2023-02-19T21:30:34.572Z,1.10
2023-02-19T21:35:36.255Z,1.63
2023-02-19T21:40:37.963Z,1.30
2023-02-19T21:45:39.517Z,1.88
2023-02-19T21:50:45.279Z,1.20
2023-02-19T21:55:57.769Z,1.33
2023-02-19T22:00:59.691Z,1.85
2023-02-19T22:06:02.109Z,2.53
2023-02-19T22:11:03.575Z,5.53
2023-02-19T22:16:05.550Z,5.13
2023-02-19T22:21:07.113Z,4.85
2023-02-19T22:26:08.549Z,2.55
2023-02-19T22:31:10.016Z,6.43
2023-02-19T22:36:23.523Z,4.70
2023-02-19T22:41:25.871Z,3.65
2023-02-19T22:46:30.086Z,4.90
2023-02-19T22:56:35.307Z,4.15
2023-02-19T23:01:36.753Z,3.65
2023-02-19T23:06:41.438Z,5.95
2023-02-19T23:11:43.295Z,8.93
2023-02-19T23:16:44.839Z,8.32
2023-02-19T23:26:50.978Z,6.75
2023-02-19T23:31:53.440Z,6.45
2023-02-19T23:36:55.397Z,8.35
2023-02-19T23:41:57.418Z,9.85
2023-02-19T23:46:59.034Z,7.47
2023-02-19T23:52:00.443Z,9.07
